Waldron, WA

11:08 AM PDT on October 23, 2014 (GMT -0700)
Friday Harbor | Change Station
CLOSE
Current Station
Airport
Location: Friday Harbor,
Elevation: 108 ft
Nearby Weather Stations

Elev 108 ft 48.52 °N, 123.02 °W | Updated 5 minutes ago

Overcast
Overcast
53 °F
Feels Like 53 °F
N
9
Wind Variable Wind from SSE

Today
High -- | Low -- °F
--% Chance of Precip.
Yesterday
High -- | Low -- °F
Precip. -- in
7:44 AM 6:07 PM
Waning Crescent, 0% visible
Pressure 29.73 in
Visibility 10.0 miles
Clouds Mostly Cloudy 900 ft
Mostly Cloudy 1300 ft
Overcast 6000 ft
Dew Point 51 °F
Humidity 93%
Rainfall 0.05 in
Snow Depth Not available.
UV 1 out of 12
Pollen .40 out of 12
Air Quality Not available.
Flu Activity Sporadic
SPECI KFHR 231803Z AUTO 15008KT 10SM BKN009 BKN013 OVC060 12/11 A2973 RMK AO2 T01170106

More Conditions Fewer Conditions

Pressure 29.73 in
Visibility 10.0 miles
Clouds Mostly Cloudy 900 ft
Mostly Cloudy 1300 ft
Overcast 6000 ft
Dew Point 51 °F
Humidity 93%
Rainfall 0.05 in
Snow Depth Not available.
UV 1 out of 12
Pollen .40 out of 12
Air Quality Not available.
Flu Activity Sporadic
SPECI KFHR 231803Z AUTO 15008KT 10SM BKN009 BKN013 OVC060 12/11 A2973 RMK AO2 T01170106

More Conditions Fewer Conditions

10-Day Weather Forecast

Almanac

Astronomy

Oct. 23, 2014 Rise Set
Actual Time 7:44 AM PDT 6:07 PM PDT
Civil Twilight 7:12 AM PDT 6:39 PM PDT
Nautical Twilight 6:35 AM PDT 7:16 PM PDT
Astronomical Twilight 5:59 AM PDT 7:52 PM PDT
Moon 7:28 AM PDT 6:11 PM PDT
Length of Visible Light 11h 27m
Length of Day
10h 22m
Tomorrow will be 3m 22s shorter.
Waning Crescent, 0% of the Moon is Illuminated
Today
Waning Crescent
Oct 23
New
Oct 30
First Quarter
Nov 6
Full
Nov 14
Last Quarter

Today's Extremes

State Highs State Lows

Community

WunderPhotos

Upload Photos

1,764,327 photos uploaded!

WunderBlogs® & News

By Dr. Jeff Masters
Director of Meteorology, Weather Underground
By Kari Strenfel
Meteorologist, Weather Underground
By Christopher C. Burt
Weather Historian, Weather Underground
October 23, 2014
October 23, 2014
October 23, 2014

Nearby

Snow Depth

Station Depth Elevation
Mf Nooksack 0 in 4980 ft
Elbow Lake 0 in 3200 ft
Dungeness 0 in 4100 ft
Wells Creek 0 in 4200 ft
Beaver Pass 0 in 3620 ft

Earthquake Activity

City Distance Mag. Time & Date
No recent earthquake activity has been reported nearby.
Minimum magnitude displayed is 2.5.

Coastal Water Temperatures

Place Temperature
Port Townsend, WA 52.0 °F
Friday Harbor, WA 51.1 °F
Port Angeles, WA 55.9 °F

Nearby Weather Stations